sensor_id;sensor_type;location;lat;lon;timestamp;P1;durP1;ratioP1;P2;durP2;ratioP2
11998;SDS011;40817;51.520;9.954;2023-03-01T00:01:38;16.55;;;10.27;;
11998;SDS011;40817;51.520;9.954;2023-03-01T00:04:06;18.92;;;10.88;;
11998;SDS011;40817;51.520;9.954;2023-03-01T00:06:34;18.90;;;10.25;;
11998;SDS011;40817;51.520;9.954;2023-03-01T00:09:01;16.63;;;9.52;;
11998;SDS011;40817;51.520;9.954;2023-03-01T00:11:30;18.90;;;9.55;;
11998;SDS011;40817;51.520;9.954;2023-03-01T00:14:01;17.55;;;9.05;;
11998;SDS011;40817;51.520;9.954;2023-03-01T00:16:32;18.05;;;10.82;;
11998;SDS011;40817;51.520;9.954;2023-03-01T00:19:03;18.35;;;10.50;;
11998;SDS011;40817;51.520;9.954;2023-03-01T00:21:31;16.33;;;10.07;;
11998;SDS011;40817;51.520;9.954;2023-03-01T00:24:00;15.75;;;10.40;;
11998;SDS011;40817;51.520;9.954;2023-03-01T00:26:29;17.85;;;10.07;;
11998;SDS011;40817;51.520;9.954;2023-03-01T00:28:57;17.65;;;10.10;;
11998;SDS011;40817;51.520;9.954;2023-03-01T00:31:27;14.75;;;9.02;;
11998;SDS011;40817;51.520;9.954;2023-03-01T00:33:59;16.70;;;9.35;;
11998;SDS011;40817;51.520;9.954;2023-03-01T00:36:31;17.13;;;10.40;;
11998;SDS011;40817;51.520;9.954;2023-03-01T00:39:02;18.60;;;10.55;;
11998;SDS011;40817;51.520;9.954;2023-03-01T00:41:31;17.20;;;9.85;;
11998;SDS011;40817;51.520;9.954;2023-03-01T00:44:01;15.95;;;9.43;;
11998;SDS011;40817;51.520;9.954;2023-03-01T00:46:30;13.88;;;8.25;;
11998;SDS011;40817;51.520;9.954;2023-03-01T00:48:59;18.73;;;9.18;;
11998;SDS011;40817;51.520;9.954;2023-03-01T00:51:27;14.63;;;8.52;;
11998;SDS011;40817;51.520;9.954;2023-03-01T00:53:56;14.73;;;9.38;;
11998;SDS011;40817;51.520;9.954;2023-03-01T00:56:27;15.13;;;8.35;;
11998;SDS011;40817;51.520;9.954;2023-03-01T00:58:55;14.32;;;8.82;;
11998;SDS011;40817;51.520;9.954;2023-03-01T01:01:24;13.18;;;8.10;;
11998;SDS011;40817;51.520;9.954;2023-03-01T01:03:57;9.93;;;6.97;;
11998;SDS011;40817;51.520;9.954;2023-03-01T01:06:28;12.00;;;7.03;;
11998;SDS011;40817;51.520;9.954;2023-03-01T01:09:00;10.15;;;6.30;;
11998;SDS011;40817;51.520;9.954;2023-03-01T01:11:29;11.25;;;6.68;;
11998;SDS011;40817;51.520;9.954;2023-03-01T01:13:57;12.73;;;7.03;;
11998;SDS011;40817;51.520;9.954;2023-03-01T01:16:26;15.35;;;7.05;;
11998;SDS011;40817;51.520;9.954;2023-03-01T01:18:56;11.75;;;6.70;;
11998;SDS011;40817;51.520;9.954;2023-03-01T01:21:24;13.50;;;7.07;;
11998;SDS011;40817;51.520;9.954;2023-03-01T01:23:52;13.05;;;7.22;;
11998;SDS011;40817;51.520;9.954;2023-03-01T01:26:22;11.10;;;6.47;;
11998;SDS011;40817;51.520;9.954;2023-03-01T01:28:53;11.82;;;6.60;;
11998;SDS011;40817;51.520;9.954;2023-03-01T01:31:21;10.30;;;6.30;;
11998;SDS011;40817;51.520;9.954;2023-03-01T01:33:49;10.10;;;6.43;;
11998;SDS011;40817;51.520;9.954;2023-03-01T01:36:19;12.35;;;6.35;;
11998;SDS011;40817;51.520;9.954;2023-03-01T01:38:47;12.65;;;6.32;;
11998;SDS011;40817;51.520;9.954;2023-03-01T01:41:15;10.32;;;6.72;;
11998;SDS011;40817;51.520;9.954;2023-03-01T01:43:44;12.05;;;6.68;;
11998;SDS011;40817;51.520;9.954;2023-03-01T01:46:21;13.45;;;8.20;;
11998;SDS011;40817;51.520;9.954;2023-03-01T01:49:00;9.30;;;6.53;;
11998;SDS011;40817;51.520;9.954;2023-03-01T01:51:35;11.85;;;7.32;;
11998;SDS011;40817;51.520;9.954;2023-03-01T01:54:08;13.57;;;7.32;;
11998;SDS011;40817;51.520;9.954;2023-03-01T01:56:40;13.18;;;7.35;;
11998;SDS011;40817;51.520;9.954;2023-03-01T01:59:16;12.15;;;7.82;;
11998;SDS011;40817;51.520;9.954;2023-03-01T02:01:43;15.98;;;8.65;;
11998;SDS011;40817;51.520;9.954;2023-03-01T02:04:11;11.38;;;6.97;;
11998;SDS011;40817;51.520;9.954;2023-03-01T02:06:41;12.10;;;7.25;;
11998;SDS011;40817;51.520;9.954;2023-03-01T02:09:18;12.02;;;7.25;;
11998;SDS011;40817;51.520;9.954;2023-03-01T02:11:48;12.48;;;8.27;;
11998;SDS011;40817;51.520;9.954;2023-03-01T02:14:17;14.38;;;8.68;;
11998;SDS011;40817;51.520;9.954;2023-03-01T02:16:44;13.52;;;7.55;;
11998;SDS011;40817;51.520;9.954;2023-03-01T02:19:14;13.88;;;8.02;;
11998;SDS011;40817;51.520;9.954;2023-03-01T02:22:00;12.13;;;7.97;;
11998;SDS011;40817;51.520;9.954;2023-03-01T02:24:45;13.90;;;8.07;;
11998;SDS011;40817;51.520;9.954;2023-03-01T02:27:29;14.70;;;8.20;;
11998;SDS011;40817;51.520;9.954;2023-03-01T02:30:06;12.37;;;7.87;;
11998;SDS011;40817;51.520;9.954;2023-03-01T02:32:38;15.23;;;8.80;;
11998;SDS011;40817;51.520;9.954;2023-03-01T02:35:08;16.85;;;8.85;;
11998;SDS011;40817;51.520;9.954;2023-03-01T02:37:38;14.77;;;8.90;;
11998;SDS011;40817;51.520;9.954;2023-03-01T02:40:08;19.83;;;8.77;;
11998;SDS011;40817;51.520;9.954;2023-03-01T02:42:43;13.82;;;8.75;;
11998;SDS011;40817;51.520;9.954;2023-03-01T02:45:18;14.90;;;8.65;;
11998;SDS011;40817;51.520;9.954;2023-03-01T02:47:46;15.38;;;8.57;;
11998;SDS011;40817;51.520;9.954;2023-03-01T02:50:15;16.88;;;9.10;;
11998;SDS011;40817;51.520;9.954;2023-03-01T02:53:06;16.55;;;8.82;;
11998;SDS011;40817;51.520;9.954;2023-03-01T02:55:39;15.20;;;9.13;;
11998;SDS011;40817;51.520;9.954;2023-03-01T02:58:07;13.93;;;9.05;;
11998;SDS011;40817;51.520;9.954;2023-03-01T03:00:37;14.60;;;9.03;;
11998;SDS011;40817;51.520;9.954;2023-03-01T03:03:12;14.90;;;8.50;;
11998;SDS011;40817;51.520;9.954;2023-03-01T03:05:41;14.00;;;9.05;;
11998;SDS011;40817;51.520;9.954;2023-03-01T03:08:09;14.20;;;9.25;;
11998;SDS011;40817;51.520;9.954;2023-03-01T03:10:39;15.40;;;8.40;;
11998;SDS011;40817;51.520;9.954;2023-03-01T03:13:09;16.33;;;9.03;;
11998;SDS011;40817;51.520;9.954;2023-03-01T03:15:42;15.30;;;9.07;;
11998;SDS011;40817;51.520;9.954;2023-03-01T03:18:11;14.83;;;9.00;;
11998;SDS011;40817;51.520;9.954;2023-03-01T03:20:42;14.83;;;8.33;;
11998;SDS011;40817;51.520;9.954;2023-03-01T03:23:10;14.02;;;8.75;;
11998;SDS011;40817;51.520;9.954;2023-03-01T03:25:38;15.83;;;9.43;;
11998;SDS011;40817;51.520;9.954;2023-03-01T03:28:06;13.82;;;8.20;;
11998;SDS011;40817;51.520;9.954;2023-03-01T03:30:36;14.63;;;8.33;;
11998;SDS011;40817;51.520;9.954;2023-03-01T03:33:08;12.77;;;8.13;;
11998;SDS011;40817;51.520;9.954;2023-03-01T03:35:38;16.17;;;10.40;;
11998;SDS011;40817;51.520;9.954;2023-03-01T03:38:10;15.03;;;8.50;;
11998;SDS011;40817;51.520;9.954;2023-03-01T03:40:44;12.95;;;8.02;;
11998;SDS011;40817;51.520;9.954;2023-03-01T03:43:19;13.93;;;8.60;;
11998;SDS011;40817;51.520;9.954;2023-03-01T03:45:50;12.85;;;7.47;;
11998;SDS011;40817;51.520;9.954;2023-03-01T03:48:19;12.27;;;8.38;;
11998;SDS011;40817;51.520;9.954;2023-03-01T03:50:47;14.73;;;8.27;;
11998;SDS011;40817;51.520;9.954;2023-03-01T03:53:18;14.23;;;8.77;;
11998;SDS011;40817;51.520;9.954;2023-03-01T03:55:51;19.58;;;7.85;;
11998;SDS011;40817;51.520;9.954;2023-03-01T03:58:22;14.32;;;8.57;;
11998;SDS011;40817;51.520;9.954;2023-03-01T04:00:53;13.45;;;7.97;;
11998;SDS011;40817;51.520;9.954;2023-03-01T04:03:43;13.47;;;7.93;;
11998;SDS011;40817;51.520;9.954;2023-03-01T04:06:31;12.30;;;7.65;;
11998;SDS011;40817;51.520;9.954;2023-03-01T04:09:18;14.75;;;8.27;;
11998;SDS011;40817;51.520;9.954;2023-03-01T04:11:46;11.07;;;7.47;;
11998;SDS011;40817;51.520;9.954;2023-03-01T04:14:15;13.00;;;7.53;;
11998;SDS011;40817;51.520;9.954;2023-03-01T04:16:46;12.77;;;7.60;;
11998;SDS011;40817;51.520;9.954;2023-03-01T04:19:13;11.73;;;7.17;;
11998;SDS011;40817;51.520;9.954;2023-03-01T04:21:41;14.50;;;7.77;;
11998;SDS011;40817;51.520;9.954;2023-03-01T04:24:09;14.33;;;7.80;;
11998;SDS011;40817;51.520;9.954;2023-03-01T04:26:37;15.27;;;8.70;;
11998;SDS011;40817;51.520;9.954;2023-03-01T04:29:05;14.67;;;7.47;;
11998;SDS011;40817;51.520;9.954;2023-03-01T04:31:32;11.87;;;7.77;;
11998;SDS011;40817;51.520;9.954;2023-03-01T04:34:01;15.27;;;9.00;;
11998;SDS011;40817;51.520;9.954;2023-03-01T04:36:29;12.73;;;7.67;;
11998;SDS011;40817;51.520;9.954;2023-03-01T04:38:56;16.00;;;8.80;;
11998;SDS011;40817;51.520;9.954;2023-03-01T04:41:24;13.30;;;8.10;;
11998;SDS011;40817;51.520;9.954;2023-03-01T04:43:52;14.87;;;8.60;;
11998;SDS011;40817;51.520;9.954;2023-03-01T04:46:20;14.70;;;8.87;;
11998;SDS011;40817;51.520;9.954;2023-03-01T04:48:48;14.18;;;8.10;;
11998;SDS011;40817;51.520;9.954;2023-03-01T04:51:17;13.63;;;7.80;;
11998;SDS011;40817;51.520;9.954;2023-03-01T04:53:44;16.17;;;8.77;;
11998;SDS011;40817;51.520;9.954;2023-03-01T04:56:12;13.93;;;8.63;;
11998;SDS011;40817;51.520;9.954;2023-03-01T04:58:43;11.70;;;7.77;;
11998;SDS011;40817;51.520;9.954;2023-03-01T05:01:14;14.73;;;8.67;;
11998;SDS011;40817;51.520;9.954;2023-03-01T05:03:45;15.93;;;9.67;;
11998;SDS011;40817;51.520;9.954;2023-03-01T05:06:16;13.30;;;7.95;;
11998;SDS011;40817;51.520;9.954;2023-03-01T05:08:46;13.77;;;8.20;;
11998;SDS011;40817;51.520;9.954;2023-03-01T05:11:13;14.00;;;8.60;;
11998;SDS011;40817;51.520;9.954;2023-03-01T05:13:41;17.40;;;9.80;;
11998;SDS011;40817;51.520;9.954;2023-03-01T05:16:08;13.97;;;9.33;;
11998;SDS011;40817;51.520;9.954;2023-03-01T05:18:37;12.70;;;7.90;;
11998;SDS011;40817;51.520;9.954;2023-03-01T05:21:06;15.23;;;8.43;;
11998;SDS011;40817;51.520;9.954;2023-03-01T05:23:38;14.83;;;8.03;;
11998;SDS011;40817;51.520;9.954;2023-03-01T05:26:06;13.67;;;8.23;;
11998;SDS011;40817;51.520;9.954;2023-03-01T05:28:35;12.40;;;7.80;;
11998;SDS011;40817;51.520;9.954;2023-03-01T05:31:04;15.30;;;8.80;;
11998;SDS011;40817;51.520;9.954;2023-03-01T05:33:35;15.73;;;9.10;;
11998;SDS011;40817;51.520;9.954;2023-03-01T05:36:04;13.87;;;8.80;;
11998;SDS011;40817;51.520;9.954;2023-03-01T05:38:33;14.37;;;9.17;;
11998;SDS011;40817;51.520;9.954;2023-03-01T05:41:03;15.37;;;9.10;;
11998;SDS011;40817;51.520;9.954;2023-03-01T05:43:31;15.13;;;8.70;;
11998;SDS011;40817;51.520;9.954;2023-03-01T05:46:01;16.90;;;9.10;;
11998;SDS011;40817;51.520;9.954;2023-03-01T05:48:29;20.03;;;9.27;;
11998;SDS011;40817;51.520;9.954;2023-03-01T05:51:09;15.80;;;10.07;;
11998;SDS011;40817;51.520;9.954;2023-03-01T05:53:37;17.47;;;9.37;;
11998;SDS011;40817;51.520;9.954;2023-03-01T05:56:06;14.50;;;8.63;;
11998;SDS011;40817;51.520;9.954;2023-03-01T05:58:34;17.23;;;9.93;;
11998;SDS011;40817;51.520;9.954;2023-03-01T06:01:12;16.52;;;9.25;;
11998;SDS011;40817;51.520;9.954;2023-03-01T06:03:39;14.97;;;9.07;;
11998;SDS011;40817;51.520;9.954;2023-03-01T06:06:07;15.53;;;9.53;;
11998;SDS011;40817;51.520;9.954;2023-03-01T06:08:35;16.10;;;10.17;;
11998;SDS011;40817;51.520;9.954;2023-03-01T06:11:07;15.93;;;9.47;;
11998;SDS011;40817;51.520;9.954;2023-03-01T06:13:34;18.20;;;10.50;;
11998;SDS011;40817;51.520;9.954;2023-03-01T06:16:04;18.73;;;10.93;;
11998;SDS011;40817;51.520;9.954;2023-03-01T06:18:33;18.97;;;10.80;;
11998;SDS011;40817;51.520;9.954;2023-03-01T06:21:00;13.37;;;9.03;;
11998;SDS011;40817;51.520;9.954;2023-03-01T06:23:28;17.97;;;10.40;;
11998;SDS011;40817;51.520;9.954;2023-03-01T06:25:56;15.47;;;10.77;;
11998;SDS011;40817;51.520;9.954;2023-03-01T06:28:25;18.23;;;10.63;;
11998;SDS011;40817;51.520;9.954;2023-03-01T06:30:53;16.93;;;10.33;;
11998;SDS011;40817;51.520;9.954;2023-03-01T06:33:20;19.00;;;10.47;;
11998;SDS011;40817;51.520;9.954;2023-03-01T06:35:49;15.40;;;9.80;;
11998;SDS011;40817;51.520;9.954;2023-03-01T06:38:17;16.53;;;10.17;;
11998;SDS011;40817;51.520;9.954;2023-03-01T06:40:45;15.47;;;9.60;;
11998;SDS011;40817;51.520;9.954;2023-03-01T06:43:22;17.00;;;9.90;;
11998;SDS011;40817;51.520;9.954;2023-03-01T06:45:51;16.07;;;9.33;;
11998;SDS011;40817;51.520;9.954;2023-03-01T06:48:19;19.13;;;10.47;;
11998;SDS011;40817;51.520;9.954;2023-03-01T06:50:46;16.47;;;9.97;;
11998;SDS011;40817;51.520;9.954;2023-03-01T06:53:14;20.17;;;12.33;;
11998;SDS011;40817;51.520;9.954;2023-03-01T06:55:41;17.30;;;11.40;;
11998;SDS011;40817;51.520;9.954;2023-03-01T06:58:09;18.27;;;11.17;;
11998;SDS011;40817;51.520;9.954;2023-03-01T07:00:38;21.20;;;11.73;;
11998;SDS011;40817;51.520;9.954;2023-03-01T07:03:07;20.50;;;11.57;;
11998;SDS011;40817;51.520;9.954;2023-03-01T07:05:35;18.00;;;10.83;;
11998;SDS011;40817;51.520;9.954;2023-03-01T07:08:03;18.80;;;11.70;;
11998;SDS011;40817;51.520;9.954;2023-03-01T07:10:30;18.77;;;11.23;;
11998;SDS011;40817;51.520;9.954;2023-03-01T07:12:58;16.87;;;10.50;;
11998;SDS011;40817;51.520;9.954;2023-03-01T07:15:26;18.47;;;10.73;;
11998;SDS011;40817;51.520;9.954;2023-03-01T07:17:57;15.90;;;10.57;;
11998;SDS011;40817;51.520;9.954;2023-03-01T07:20:24;17.90;;;10.73;;
11998;SDS011;40817;51.520;9.954;2023-03-01T07:22:52;20.30;;;10.83;;
11998;SDS011;40817;51.520;9.954;2023-03-01T07:25:21;17.10;;;10.10;;
11998;SDS011;40817;51.520;9.954;2023-03-01T07:27:49;20.27;;;12.27;;
11998;SDS011;40817;51.520;9.954;2023-03-01T07:30:19;20.23;;;11.20;;
11998;SDS011;40817;51.520;9.954;2023-03-01T07:32:47;20.77;;;12.53;;
11998;SDS011;40817;51.520;9.954;2023-03-01T07:35:16;23.70;;;11.70;;
11998;SDS011;40817;51.520;9.954;2023-03-01T07:37:44;24.07;;;12.93;;
11998;SDS011;40817;51.520;9.954;2023-03-01T07:40:12;21.23;;;12.20;;
11998;SDS011;40817;51.520;9.954;2023-03-01T07:42:40;21.13;;;12.60;;
11998;SDS011;40817;51.520;9.954;2023-03-01T07:45:08;22.23;;;12.80;;
11998;SDS011;40817;51.520;9.954;2023-03-01T07:47:37;19.57;;;11.83;;
11998;SDS011;40817;51.520;9.954;2023-03-01T07:50:05;24.47;;;12.63;;
11998;SDS011;40817;51.520;9.954;2023-03-01T07:52:35;19.77;;;12.13;;
11998;SDS011;40817;51.520;9.954;2023-03-01T07:55:03;22.27;;;12.40;;
11998;SDS011;40817;51.520;9.954;2023-03-01T07:57:32;20.05;;;11.45;;
11998;SDS011;40817;51.520;9.954;2023-03-01T08:00:00;21.13;;;12.38;;
11998;SDS011;40817;51.520;9.954;2023-03-01T08:02:28;18.38;;;11.23;;
11998;SDS011;40817;51.520;9.954;2023-03-01T08:04:55;19.70;;;11.40;;
11998;SDS011;40817;51.520;9.954;2023-03-01T08:07:23;21.60;;;11.20;;
11998;SDS011;40817;51.520;9.954;2023-03-01T08:09:52;22.75;;;12.85;;
11998;SDS011;40817;51.520;9.954;2023-03-01T08:12:19;20.58;;;11.73;;
11998;SDS011;40817;51.520;9.954;2023-03-01T08:14:47;16.30;;;10.60;;
11998;SDS011;40817;51.520;9.954;2023-03-01T08:17:15;20.30;;;11.23;;
11998;SDS011;40817;51.520;9.954;2023-03-01T08:19:43;19.13;;;10.68;;
11998;SDS011;40817;51.520;9.954;2023-03-01T08:22:11;18.33;;;11.13;;
11998;SDS011;40817;51.520;9.954;2023-03-01T08:24:38;23.75;;;10.77;;
11998;SDS011;40817;51.520;9.954;2023-03-01T08:27:07;20.57;;;11.03;;
11998;SDS011;40817;51.520;9.954;2023-03-01T08:29:35;18.02;;;11.23;;
11998;SDS011;40817;51.520;9.954;2023-03-01T08:32:03;17.80;;;10.57;;
11998;SDS011;40817;51.520;9.954;2023-03-01T08:34:31;15.98;;;10.52;;
11998;SDS011;40817;51.520;9.954;2023-03-01T08:37:01;16.88;;;10.10;;
11998;SDS011;40817;51.520;9.954;2023-03-01T08:39:29;18.65;;;9.90;;
11998;SDS011;40817;51.520;9.954;2023-03-01T08:41:57;16.30;;;9.73;;
11998;SDS011;40817;51.520;9.954;2023-03-01T08:44:26;16.85;;;10.77;;
11998;SDS011;40817;51.520;9.954;2023-03-01T08:46:53;17.20;;;10.20;;
11998;SDS011;40817;51.520;9.954;2023-03-01T08:49:32;16.88;;;10.30;;
11998;SDS011;40817;51.520;9.954;2023-03-01T08:52:01;16.10;;;9.88;;
11998;SDS011;40817;51.520;9.954;2023-03-01T08:54:32;18.73;;;11.13;;
11998;SDS011;40817;51.520;9.954;2023-03-01T08:57:00;18.15;;;9.75;;
11998;SDS011;40817;51.520;9.954;2023-03-01T08:59:29;16.42;;;10.18;;
11998;SDS011;40817;51.520;9.954;2023-03-01T09:02:02;14.40;;;9.65;;
11998;SDS011;40817;51.520;9.954;2023-03-01T09:04:30;18.85;;;9.55;;
11998;SDS011;40817;51.520;9.954;2023-03-01T09:06:58;20.92;;;9.57;;
11998;SDS011;40817;51.520;9.954;2023-03-01T09:09:26;18.52;;;10.23;;
11998;SDS011;40817;51.520;9.954;2023-03-01T09:11:53;15.65;;;9.25;;
11998;SDS011;40817;51.520;9.954;2023-03-01T09:14:21;16.25;;;9.13;;
11998;SDS011;40817;51.520;9.954;2023-03-01T09:16:51;17.35;;;11.05;;
11998;SDS011;40817;51.520;9.954;2023-03-01T09:19:18;19.95;;;9.43;;
11998;SDS011;40817;51.520;9.954;2023-03-01T09:21:46;16.92;;;9.60;;
11998;SDS011;40817;51.520;9.954;2023-03-01T09:24:18;18.45;;;10.05;;
11998;SDS011;40817;51.520;9.954;2023-03-01T09:26:49;19.45;;;10.43;;
11998;SDS011;40817;51.520;9.954;2023-03-01T09:29:22;16.25;;;9.63;;
11998;SDS011;40817;51.520;9.954;2023-03-01T09:31:52;18.30;;;9.65;;
11998;SDS011;40817;51.520;9.954;2023-03-01T09:34:22;16.98;;;10.40;;
11998;SDS011;40817;51.520;9.954;2023-03-01T09:36:50;21.90;;;10.40;;
11998;SDS011;40817;51.520;9.954;2023-03-01T09:39:17;15.23;;;9.50;;
11998;SDS011;40817;51.520;9.954;2023-03-01T09:41:47;20.15;;;9.43;;
11998;SDS011;40817;51.520;9.954;2023-03-01T09:44:32;16.05;;;9.80;;
11998;SDS011;40817;51.520;9.954;2023-03-01T09:47:17;17.13;;;9.57;;
11998;SDS011;40817;51.520;9.954;2023-03-01T09:49:50;18.27;;;9.65;;
11998;SDS011;40817;51.520;9.954;2023-03-01T09:52:30;15.30;;;9.50;;
11998;SDS011;40817;51.520;9.954;2023-03-01T09:55:08;14.13;;;7.50;;
11998;SDS011;40817;51.520;9.954;2023-03-01T09:57:43;12.82;;;6.72;;
11998;SDS011;40817;51.520;9.954;2023-03-01T10:00:22;12.27;;;6.13;;
11998;SDS011;40817;51.520;9.954;2023-03-01T10:03:06;12.05;;;6.53;;
11998;SDS011;40817;51.520;9.954;2023-03-01T10:05:47;10.45;;;6.55;;
11998;SDS011;40817;51.520;9.954;2023-03-01T10:08:31;12.57;;;6.60;;
11998;SDS011;40817;51.520;9.954;2023-03-01T10:11:15;11.95;;;6.60;;
11998;SDS011;40817;51.520;9.954;2023-03-01T10:13:51;10.70;;;6.13;;
11998;SDS011;40817;51.520;9.954;2023-03-01T10:19:09;13.30;;;6.65;;
11998;SDS011;40817;51.520;9.954;2023-03-01T10:21:51;8.98;;;6.03;;
11998;SDS011;40817;51.520;9.954;2023-03-01T10:24:19;13.05;;;7.05;;
11998;SDS011;40817;51.520;9.954;2023-03-01T10:26:53;8.82;;;5.85;;
11998;SDS011;40817;51.520;9.954;2023-03-01T10:29:23;11.27;;;6.35;;
11998;SDS011;40817;51.520;9.954;2023-03-01T10:32:00;12.10;;;6.60;;
11998;SDS011;40817;51.520;9.954;2023-03-01T10:34:33;11.00;;;5.88;;
11998;SDS011;40817;51.520;9.954;2023-03-01T10:37:08;9.27;;;6.07;;
11998;SDS011;40817;51.520;9.954;2023-03-01T10:39:54;11.85;;;6.50;;
11998;SDS011;40817;51.520;9.954;2023-03-01T10:42:26;12.45;;;6.25;;
11998;SDS011;40817;51.520;9.954;2023-03-01T10:44:57;12.60;;;6.43;;
11998;SDS011;40817;51.520;9.954;2023-03-01T10:47:43;12.35;;;6.47;;
11998;SDS011;40817;51.520;9.954;2023-03-01T10:50:19;24.40;;;6.88;;
11998;SDS011;40817;51.520;9.954;2023-03-01T10:52:56;11.30;;;6.80;;
11998;SDS011;40817;51.520;9.954;2023-03-01T10:55:27;10.18;;;6.30;;
11998;SDS011;40817;51.520;9.954;2023-03-01T10:58:09;11.32;;;6.13;;
11998;SDS011;40817;51.520;9.954;2023-03-01T11:00:47;9.98;;;6.28;;
11998;SDS011;40817;51.520;9.954;2023-03-01T11:03:19;12.85;;;6.63;;
11998;SDS011;40817;51.520;9.954;2023-03-01T11:05:56;11.68;;;6.82;;
11998;SDS011;40817;51.520;9.954;2023-03-01T11:11:22;13.15;;;6.85;;
11998;SDS011;40817;51.520;9.954;2023-03-01T11:13:58;12.23;;;6.25;;
11998;SDS011;40817;51.520;9.954;2023-03-01T11:16:33;9.73;;;5.65;;
11998;SDS011;40817;51.520;9.954;2023-03-01T11:19:13;12.38;;;5.65;;
11998;SDS011;40817;51.520;9.954;2023-03-01T11:24:40;8.98;;;5.60;;
11998;SDS011;40817;51.520;9.954;2023-03-01T11:27:18;10.10;;;5.10;;
11998;SDS011;40817;51.520;9.954;2023-03-01T11:29:52;10.05;;;5.60;;
11998;SDS011;40817;51.520;9.954;2023-03-01T11:32:24;10.82;;;6.20;;
11998;SDS011;40817;51.520;9.954;2023-03-01T11:35:01;11.48;;;6.22;;
11998;SDS011;40817;51.520;9.954;2023-03-01T11:37:38;8.48;;;4.90;;
11998;SDS011;40817;51.520;9.954;2023-03-01T11:40:15;11.65;;;6.30;;
11998;SDS011;40817;51.520;9.954;2023-03-01T11:43:05;10.85;;;5.45;;
11998;SDS011;40817;51.520;9.954;2023-03-01T11:45:47;7.88;;;5.03;;
11998;SDS011;40817;51.520;9.954;2023-03-01T11:52:30;10.30;;;5.00;;
11998;SDS011;40817;51.520;9.954;2023-03-01T11:55:17;9.73;;;5.32;;
11998;SDS011;40817;51.520;9.954;2023-03-01T11:58:07;9.80;;;4.90;;
11998;SDS011;40817;51.520;9.954;2023-03-01T12:01:01;9.65;;;5.15;;
11998;SDS011;40817;51.520;9.954;2023-03-01T12:04:01;8.35;;;4.90;;
11998;SDS011;40817;51.520;9.954;2023-03-01T12:07:17;9.52;;;4.43;;
11998;SDS011;40817;51.520;9.954;2023-03-01T12:10:07;7.60;;;4.75;;
11998;SDS011;40817;51.520;9.954;2023-03-01T12:16:11;7.32;;;4.90;;
11998;SDS011;40817;51.520;9.954;2023-03-01T12:19:01;8.75;;;5.35;;
11998;SDS011;40817;51.520;9.954;2023-03-01T12:22:00;11.82;;;6.63;;
11998;SDS011;40817;51.520;9.954;2023-03-01T12:31:31;7.63;;;6.05;;
11998;SDS011;40817;51.520;9.954;2023-03-01T12:38:10;8.88;;;5.60;;
11998;SDS011;40817;51.520;9.954;2023-03-01T12:41:17;10.23;;;5.47;;
11998;SDS011;40817;51.520;9.954;2023-03-01T12:44:31;9.38;;;6.25;;
11998;SDS011;40817;51.520;9.954;2023-03-01T12:47:26;8.82;;;5.70;;
11998;SDS011;40817;51.520;9.954;2023-03-01T12:50:12;10.55;;;5.60;;
11998;SDS011;40817;51.520;9.954;2023-03-01T12:52:47;8.73;;;5.60;;
11998;SDS011;40817;51.520;9.954;2023-03-01T12:55:23;9.77;;;6.22;;
11998;SDS011;40817;51.520;9.954;2023-03-01T12:58:00;9.95;;;5.78;;
11998;SDS011;40817;51.520;9.954;2023-03-01T13:00:39;8.27;;;5.90;;
11998;SDS011;40817;51.520;9.954;2023-03-01T13:03:24;9.65;;;6.07;;
11998;SDS011;40817;51.520;9.954;2023-03-01T13:06:07;8.55;;;5.95;;
11998;SDS011;40817;51.520;9.954;2023-03-01T13:08:44;9.45;;;6.10;;
11998;SDS011;40817;51.520;9.954;2023-03-01T13:11:25;8.98;;;5.97;;
11998;SDS011;40817;51.520;9.954;2023-03-01T13:17:30;8.38;;;5.72;;
11998;SDS011;40817;51.520;9.954;2023-03-01T13:20:12;10.65;;;6.38;;
11998;SDS011;40817;51.520;9.954;2023-03-01T13:22:44;11.88;;;6.80;;
11998;SDS011;40817;51.520;9.954;2023-03-01T13:25:14;9.88;;;6.68;;
11998;SDS011;40817;51.520;9.954;2023-03-01T13:27:45;11.95;;;6.32;;
11998;SDS011;40817;51.520;9.954;2023-03-01T13:36:09;8.10;;;6.00;;
11998;SDS011;40817;51.520;9.954;2023-03-01T13:39:01;9.82;;;6.15;;
11998;SDS011;40817;51.520;9.954;2023-03-01T13:41:48;9.85;;;5.75;;
11998;SDS011;40817;51.520;9.954;2023-03-01T13:46:53;8.25;;;6.05;;
11998;SDS011;40817;51.520;9.954;2023-03-01T13:49:26;9.60;;;5.95;;
11998;SDS011;40817;51.520;9.954;2023-03-01T13:52:00;10.18;;;5.55;;
11998;SDS011;40817;51.520;9.954;2023-03-01T13:54:31;7.70;;;4.93;;
11998;SDS011;40817;51.520;9.954;2023-03-01T13:56:59;9.27;;;5.63;;
11998;SDS011;40817;51.520;9.954;2023-03-01T13:59:28;8.25;;;6.07;;
11998;SDS011;40817;51.520;9.954;2023-03-01T14:01:56;10.98;;;5.55;;
11998;SDS011;40817;51.520;9.954;2023-03-01T14:04:27;7.63;;;5.80;;
11998;SDS011;40817;51.520;9.954;2023-03-01T14:07:11;8.80;;;5.72;;
11998;SDS011;40817;51.520;9.954;2023-03-01T14:09:45;8.55;;;5.55;;
11998;SDS011;40817;51.520;9.954;2023-03-01T14:12:22;8.07;;;5.32;;
11998;SDS011;40817;51.520;9.954;2023-03-01T14:15:13;9.90;;;5.82;;
11998;SDS011;40817;51.520;9.954;2023-03-01T14:17:50;10.15;;;5.60;;
11998;SDS011;40817;51.520;9.954;2023-03-01T14:20:27;9.57;;;5.55;;
11998;SDS011;40817;51.520;9.954;2023-03-01T14:22:58;10.38;;;5.70;;
11998;SDS011;40817;51.520;9.954;2023-03-01T14:25:36;8.02;;;5.43;;
11998;SDS011;40817;51.520;9.954;2023-03-01T14:28:12;8.68;;;5.40;;
11998;SDS011;40817;51.520;9.954;2023-03-01T14:30:45;8.65;;;6.03;;
11998;SDS011;40817;51.520;9.954;2023-03-01T14:33:18;9.85;;;5.90;;
11998;SDS011;40817;51.520;9.954;2023-03-01T14:35:57;6.68;;;4.70;;
11998;SDS011;40817;51.520;9.954;2023-03-01T14:38:29;6.90;;;4.65;;
11998;SDS011;40817;51.520;9.954;2023-03-01T14:41:02;9.98;;;5.75;;
11998;SDS011;40817;51.520;9.954;2023-03-01T14:43:35;6.75;;;4.65;;
11998;SDS011;40817;51.520;9.954;2023-03-01T14:46:06;8.52;;;5.38;;
11998;SDS011;40817;51.520;9.954;2023-03-01T14:49:02;9.52;;;5.20;;
11998;SDS011;40817;51.520;9.954;2023-03-01T14:51:36;8.90;;;4.55;;
11998;SDS011;40817;51.520;9.954;2023-03-01T14:54:10;8.50;;;5.05;;
11998;SDS011;40817;51.520;9.954;2023-03-01T14:56:52;8.82;;;5.50;;
11998;SDS011;40817;51.520;9.954;2023-03-01T14:59:25;7.43;;;4.80;;
11998;SDS011;40817;51.520;9.954;2023-03-01T15:01:54;8.93;;;4.57;;
11998;SDS011;40817;51.520;9.954;2023-03-01T15:04:25;7.82;;;5.13;;
11998;SDS011;40817;51.520;9.954;2023-03-01T15:06:55;8.95;;;4.93;;
11998;SDS011;40817;51.520;9.954;2023-03-01T15:09:30;7.20;;;5.35;;
11998;SDS011;40817;51.520;9.954;2023-03-01T15:18:03;8.68;;;4.95;;
11998;SDS011;40817;51.520;9.954;2023-03-01T15:20:43;7.43;;;5.30;;
11998;SDS011;40817;51.520;9.954;2023-03-01T15:23:17;6.97;;;4.72;;
11998;SDS011;40817;51.520;9.954;2023-03-01T15:25:52;8.25;;;4.65;;
11998;SDS011;40817;51.520;9.954;2023-03-01T15:28:25;9.13;;;5.53;;
11998;SDS011;40817;51.520;9.954;2023-03-01T15:30:57;7.00;;;4.82;;
11998;SDS011;40817;51.520;9.954;2023-03-01T15:33:31;7.60;;;4.63;;
11998;SDS011;40817;51.520;9.954;2023-03-01T15:36:29;8.48;;;4.95;;
11998;SDS011;40817;51.520;9.954;2023-03-01T15:39:05;6.70;;;4.72;;
11998;SDS011;40817;51.520;9.954;2023-03-01T15:42:03;9.02;;;4.53;;
11998;SDS011;40817;51.520;9.954;2023-03-01T15:44:37;7.70;;;4.93;;
11998;SDS011;40817;51.520;9.954;2023-03-01T15:47:29;8.32;;;5.18;;
11998;SDS011;40817;51.520;9.954;2023-03-01T15:49:58;7.65;;;4.55;;
11998;SDS011;40817;51.520;9.954;2023-03-01T15:52:28;7.18;;;4.22;;